createdAt,value
2023-04-19T08:29:23.643Z,100.00
2023-04-19T08:34:29.277Z,100.00
2023-04-19T08:39:34.242Z,100.00
2023-04-19T08:44:58.917Z,100.00
2023-04-19T08:50:17.440Z,100.00
2023-04-19T08:55:28.928Z,100.00
2023-04-19T09:00:34.880Z,100.00
2023-04-19T09:05:38.719Z,100.00
2023-04-19T09:10:53.409Z,100.00
2023-04-19T09:16:00.705Z,100.00
2023-04-19T09:21:04.324Z,100.00
2023-04-19T09:26:22.804Z,100.00
2023-04-19T09:31:43.413Z,100.00
2023-04-19T09:37:00.991Z,100.00
2023-04-19T09:42:12.537Z,100.00
2023-04-19T09:47:26.257Z,100.00
2023-04-19T09:52:29.633Z,99.38
2023-04-19T09:57:33.585Z,98.49
2023-04-19T10:02:39.331Z,94.39
2023-04-19T10:07:45.914Z,94.71
2023-04-19T10:17:57.789Z,93.39
2023-04-19T10:23:01.280Z,92.07
2023-04-19T10:28:07.348Z,93.05
2023-04-19T10:33:25.271Z,92.68
2023-04-19T10:38:42.685Z,92.39
2023-04-19T10:43:51.372Z,91.90
2023-04-19T10:49:01.467Z,90.46
2023-04-19T10:54:06.429Z,92.36
2023-04-19T10:59:24.842Z,89.04
2023-04-19T11:04:47.951Z,88.03
2023-04-19T11:09:52.918Z,90.49
2023-04-19T11:14:59.731Z,89.21
2023-04-19T11:20:06.778Z,89.76
2023-04-19T11:25:12.300Z,91.15
2023-04-19T11:30:16.852Z,90.92
2023-04-19T11:35:21.257Z,90.39
2023-04-19T11:40:27.007Z,87.01
2023-04-19T11:45:34.750Z,89.08
2023-04-19T11:50:45.671Z,88.44
2023-04-19T11:55:54.303Z,90.09
2023-04-19T12:01:00.470Z,88.68
2023-04-19T12:06:04.933Z,86.55
2023-04-19T12:11:09.718Z,88.53
2023-04-19T12:16:13.407Z,87.62
2023-04-19T12:21:26.016Z,86.17
2023-04-19T12:26:31.179Z,87.39
2023-04-19T12:31:34.474Z,90.48
2023-04-19T12:36:37.765Z,91.40
2023-04-19T12:41:42.398Z,86.77
2023-04-19T12:46:45.720Z,86.49
2023-04-19T12:51:49.003Z,89.43
2023-04-19T12:57:00.361Z,87.80
2023-04-19T13:02:08.287Z,70.19
2023-04-19T13:07:11.867Z,69.29
2023-04-19T13:12:20.451Z,64.09
2023-04-19T13:17:23.819Z,64.09
2023-04-19T13:22:27.613Z,64.57
2023-04-19T13:27:32.948Z,65.11
2023-04-19T13:32:36.385Z,65.11
2023-04-19T13:37:44.463Z,65.13
2023-04-19T13:42:49.364Z,66.44
2023-04-19T13:47:52.837Z,68.18
2023-04-19T13:52:58.151Z,68.97
2023-04-19T13:58:03.062Z,70.56
2023-04-19T14:03:09.030Z,70.85
2023-04-19T14:08:12.499Z,70.87
2023-04-19T14:13:42.901Z,70.66
2023-04-19T14:18:46.365Z,71.19
2023-04-19T14:23:49.714Z,70.21
2023-04-19T14:28:56.700Z,72.16
2023-04-19T14:34:00.544Z,71.70
2023-04-19T14:39:03.856Z,73.28
2023-04-19T14:44:10.930Z,75.62
2023-04-19T14:49:14.456Z,80.14
2023-04-19T14:54:21.116Z,97.26
2023-04-19T14:59:27.588Z,100.00
2023-04-19T15:04:40.693Z,100.00
2023-04-19T15:10:13.296Z,100.00
2023-04-19T15:15:18.096Z,100.00
2023-04-19T15:20:24.499Z,100.00
2023-04-19T15:25:30.879Z,100.00
2023-04-19T15:30:35.805Z,100.00
2023-04-19T15:35:45.835Z,100.00
2023-04-19T15:40:49.439Z,100.00
2023-04-19T15:45:56.830Z,100.00
2023-04-19T15:51:01.567Z,100.00
2023-04-19T15:56:05.395Z,100.00
2023-04-19T16:01:12.326Z,100.00
2023-04-19T16:06:15.758Z,100.00
2023-04-19T16:11:19.139Z,100.00
2023-04-19T16:16:28.716Z,100.00
2023-04-19T16:21:32.223Z,100.00
2023-04-19T16:26:35.562Z,100.00
2023-04-19T16:31:40.237Z,100.00
2023-04-19T16:36:48.068Z,100.00
2023-04-19T16:41:51.622Z,100.00
2023-04-19T16:46:58.344Z,100.00
2023-04-19T16:52:01.685Z,100.00
2023-04-19T16:57:05.219Z,100.00
2023-04-19T17:02:11.049Z,100.00
2023-04-19T17:07:14.519Z,100.00
2023-04-19T17:12:17.849Z,100.00
2023-04-19T17:17:24.509Z,100.00
2023-04-19T17:22:28.101Z,100.00
2023-04-19T17:27:31.728Z,100.00
2023-04-19T17:32:36.569Z,100.00
2023-04-19T17:37:41.647Z,100.00
2023-04-19T17:42:47.118Z,100.00
2023-04-19T17:47:55.341Z,100.00
2023-04-19T17:52:59.850Z,100.00
2023-04-19T17:58:03.749Z,100.00
2023-04-19T18:03:10.821Z,100.00
2023-04-19T18:08:15.017Z,100.00
2023-04-19T18:13:18.416Z,100.00
2023-04-19T18:18:28.566Z,100.00
2023-04-19T18:23:34.367Z,100.00
2023-04-19T18:28:37.754Z,100.00
2023-04-19T18:33:42.544Z,100.00
2023-04-19T18:38:46.925Z,100.00
2023-04-19T18:44:18.311Z,100.00
2023-04-19T18:49:17.110Z,100.00
2023-04-19T18:54:22.320Z,100.00
2023-04-19T18:59:27.313Z,100.00
2023-04-19T19:04:50.103Z,100.00
2023-04-19T19:10:01.540Z,100.00
2023-04-19T19:15:08.846Z,100.00
2023-04-19T19:20:13.779Z,100.00
2023-04-19T19:25:17.127Z,100.00
2023-04-19T19:30:23.708Z,100.00
2023-04-19T19:35:28.510Z,100.00
2023-04-19T19:40:32.883Z,100.00
2023-04-19T19:45:40.172Z,100.00
2023-04-19T19:55:51.223Z,100.00
2023-04-19T20:00:57.336Z,100.00
2023-04-19T20:06:17.812Z,100.00
2023-04-19T20:11:25.602Z,100.00
2023-04-19T20:16:29.145Z,100.00
2023-04-19T20:21:36.253Z,100.00
2023-04-19T20:26:39.927Z,100.00
2023-04-19T20:31:43.352Z,100.00
2023-04-19T20:36:50.467Z,100.00
2023-04-19T20:41:53.987Z,100.00
2023-04-19T20:46:57.389Z,100.00
2023-04-19T20:52:02.158Z,100.00
2023-04-19T20:57:05.626Z,100.00
2023-04-19T21:02:09.313Z,100.00
2023-04-19T21:07:14.234Z,100.00
2023-04-19T21:12:18.182Z,100.00
2023-04-19T21:17:22.073Z,100.00
2023-04-19T21:22:27.065Z,100.00
2023-04-19T21:27:34.963Z,100.00
2023-04-19T21:32:39.376Z,100.00
